Dades meteomassalio
Diari Summary for Diciembre 18, 2017 Units:  English    Metric   Both
« Previous Day
Next Day »
Diari Semanal Mensual Anual Personalitzat
  Maxima: Minima: Mijana:
Temperatura: TemperatureC °F 3.3 °F 8.4 °F
Rosada: DewpointC °F -0.3 °F 3.1 °F
Humitat: Humidity % 54 % 70 %
Velocitat del vent: WindSpeedKMH mph 0.0 mph 23 mph
Racha vent: WindSpeedGustKMH mph - -
Vent:- - WNW
Pressio: PressurehPa in 1025.3 in -
Pluja: 0.0 in    
Historical Graphs
 
 
Tabular Data for Diciembre 18, 2017
Time Temperature Dew Point Pressure Wind Wind Speed Wind Gust Humidity Rainfall Rate (Hourly) solar Conditions
TemperatureC °F DewpointC °F PressurehPa in Calm     Humidity % HourlyPrecipMM in SolarRadiationWatts/m^2 W/m2 Conditions
00:04 5.6 °F 1.4 °F 1034.8 in Calm     75 % 0.0 in 0.0 W/m2 CLR
00:06 5.6 °F 1.4 °F 1034.8 in Calm     75 % 0.0 in 0.0 W/m2 CLR
00:11 5.0 °F 1.1 °F 1035.1 in Calm     76 % 0.0 in 0.0 W/m2 CLR
00:16 5.0 °F 1.1 °F 1035.1 in WNW 3.2 mph 3.2 mph 76 % 0.0 in 0.0 W/m2 CLR
00:18 5.0 °F 1.1 °F 1035.1 in West 9.3 mph 9.3 mph 76 % 0.0 in 0.0 W/m2 CLR
00:21 5.6 °F 1.7 °F 1035.1 in West 13.0 mph 13.0 mph 76 % 0.0 in 0.0 W/m2 CLR
00:26 5.6 °F 1.7 °F 1035.1 in WNW 14.8 mph 14.8 mph 76 % 0.0 in 0.0 W/m2 CLR
00:27 5.6 °F 1.7 °F 1035.1 in WNW 14.8 mph 14.8 mph 76 % 0.0 in 0.0 W/m2 CLR
00:31 5.6 °F 1.7 °F 1035.1 in West 14.8 mph 14.8 mph 76 % 0.0 in 0.0 W/m2 CLR
00:36 5.6 °F 1.7 °F 1035.1 in WNW 11.1 mph 11.1 mph 76 % 0.0 in 0.0 W/m2 CLR
00:37 5.6 °F 1.7 °F 1035.1 in NW 16.1 mph 16.1 mph 76 % 0.0 in 0.0 W/m2 CLR
00:42 5.6 °F 1.7 °F 1035.1 in NW 11.1 mph 11.1 mph 76 % 0.0 in 0.0 W/m2 CLR
00:45 5.6 °F 1.7 °F 1035.1 in WNW 13.0 mph 13.0 mph 76 % 0.0 in 0.0 W/m2 CLR
00:50 5.6 °F 1.7 °F 1035.1 in West 9.3 mph 9.3 mph 76 % 0.0 in 0.0 W/m2 CLR
00:53 5.6 °F 1.7 °F 1035.1 in West 11.1 mph 11.1 mph 76 % 0.0 in 0.0 W/m2 CLR
00:55 5.6 °F 1.7 °F 1035.1 in WNW 6.4 mph 6.4 mph 76 % 0.0 in 0.0 W/m2 CLR
01:00 5.6 °F 1.7 °F 1035.1 in West 13.0 mph 13.0 mph 76 % 0.0 in 0.0 W/m2 CLR
01:01 5.6 °F 1.7 °F 1035.1 in West 13.0 mph 13.0 mph 76 % 0.0 in 0.0 W/m2 CLR
01:06 5.6 °F 1.7 °F 1035.1 in WNW 18.5 mph 18.5 mph 76 % 0.0 in 0.0 W/m2 CLR
01:07 5.6 °F 1.7 °F 1034.8 in WNW 16.7 mph 16.7 mph 76 % 0.0 in 0.0 W/m2 CLR
01:12 5.6 °F 1.7 °F 1034.8 in WNW 13.0 mph 13.0 mph 76 % 0.0 in 0.0 W/m2 CLR
01:13 5.6 °F 1.7 °F 1034.8 in West 13.0 mph 13.0 mph 76 % 0.0 in 0.0 W/m2 CLR
01:18 5.6 °F 1.8 °F 1034.8 in WNW 13.0 mph 13.0 mph 77 % 0.0 in 0.0 W/m2 CLR
01:19 5.6 °F 1.8 °F 1034.8 in WNW 12.9 mph 12.9 mph 77 % 0.0 in 0.0 W/m2 CLR
01:23 5.6 °F 1.8 °F 1034.8 in WNW 17.7 mph 17.7 mph 77 % 0.0 in 0.0 W/m2 CLR
01:24 5.6 °F 1.8 °F 1034.8 in WNW 18.5 mph 18.5 mph 77 % 0.0 in 0.0 W/m2 CLR
01:29 5.6 °F 1.8 °F 1034.8 in WNW 11.1 mph 11.1 mph 77 % 0.0 in 0.0 W/m2 CLR
01:31 5.6 °F 1.8 °F 1034.8 in NW 14.8 mph 14.8 mph 77 % 0.0 in 0.0 W/m2 CLR
01:32 5.0 °F 1.3 °F 1034.8 in WNW 18.5 mph 18.5 mph 77 % 0.0 in 0.0 W/m2 CLR
01:37 5.0 °F 1.3 °F 1034.8 in WNW 18.5 mph 18.5 mph 77 % 0.0 in 0.0 W/m2 CLR
01:39 5.0 °F 1.3 °F 1034.8 in WNW 18.5 mph 18.5 mph 77 % 0.0 in 0.0 W/m2 CLR
01:44 5.0 °F 1.1 °F 1034.8 in WNW 20.4 mph 20.4 mph 76 % 0.0 in 0.0 W/m2 CLR
01:45 5.0 °F 1.1 °F 1034.8 in WNW 16.7 mph 16.7 mph 76 % 0.0 in 0.0 W/m2 CLR
01:48 5.0 °F 1.1 °F 1034.8 in NW 18.5 mph 18.5 mph 76 % 0.0 in 0.0 W/m2 CLR
01:51 5.0 °F 1.1 °F 1034.8 in WNW 18.5 mph 18.5 mph 76 % 0.0 in 0.0 W/m2 CLR
01:56 5.0 °F 1.1 °F 1034.4 in West 18.5 mph 18.5 mph 76 % 0.0 in 0.0 W/m2 CLR
01:57 5.0 °F 1.1 °F 1034.4 in WNW 18.5 mph 18.5 mph 76 % 0.0 in 0.0 W/m2 CLR
02:00 5.0 °F 1.1 °F 1034.4 in West 13.0 mph 13.0 mph 76 % 0.0 in 0.0 W/m2 CLR
02:03 5.0 °F 1.3 °F 1034.4 in WNW 16.7 mph 16.7 mph 77 % 0.0 in 0.0 W/m2 CLR
02:06 5.0 °F 1.3 °F 1034.4 in WNW 18.5 mph 18.5 mph 77 % 0.0 in 0.0 W/m2 CLR
02:08 5.0 °F 1.3 °F 1034.4 in West 14.8 mph 14.8 mph 77 % 0.0 in 0.0 W/m2 CLR
02:11 5.0 °F 1.3 °F 1034.4 in West 18.5 mph 18.5 mph 77 % 0.0 in 0.0 W/m2 CLR
02:13 5.0 °F 1.3 °F 1034.8 in West 8.0 mph 8.0 mph 77 % 0.0 in 0.0 W/m2 CLR
02:17 5.0 °F 1.3 °F 1034.8 in WSW 9.3 mph 9.3 mph 77 % 0.0 in 0.0 W/m2 CLR
02:22 5.0 °F 1.3 °F 1034.4 in West 11.1 mph 11.1 mph 77 % 0.0 in 0.0 W/m2 CLR
02:26 5.0 °F 1.3 °F 1034.8 in WNW 7.4 mph 7.4 mph 77 % 0.0 in 0.0 W/m2 CLR
02:28 5.0 °F 1.5 °F 1034.8 in West 11.3 mph 11.3 mph 78 % 0.0 in 0.0 W/m2 CLR
02:33 4.4 °F 0.9 °F 1034.8 in West 13.0 mph 13.0 mph 78 % 0.0 in 0.0 W/m2 CLR
02:34 4.4 °F 0.9 °F 1034.8 in WNW 12.9 mph 12.9 mph 78 % 0.0 in 0.0 W/m2 CLR
02:39 4.4 °F 0.9 °F 1034.4 in WNW 16.7 mph 16.7 mph 78 % 0.0 in 0.0 W/m2 CLR
02:44 3.9 °F 0.4 °F 1034.4 in NW 20.4 mph 20.4 mph 78 % 0.0 in 0.0 W/m2 CLR
02:49 3.9 °F 0.2 °F 1034.4 in WNW 24.1 mph 24.1 mph 77 % 0.0 in 0.0 W/m2 CLR
02:50 3.3 °F -0.3 °F 1034.4 in WNW 18.5 mph 18.5 mph 77 % 0.0 in 0.0 W/m2 CLR
02:51 3.3 °F -0.3 °F 1034.4 in WNW 18.5 mph 18.5 mph 77 % 0.0 in 0.0 W/m2 CLR
02:56 3.9 °F 0.1 °F 1034.4 in WNW 20.4 mph 20.4 mph 76 % 0.0 in 0.0 W/m2 CLR
02:57 3.9 °F 0.1 °F 1034.4 in NW 18.5 mph 18.5 mph 76 % 0.0 in 0.0 W/m2 CLR
03:01 4.4 °F 0.6 °F 1034.4 in NW 18.5 mph 18.5 mph 76 % 0.0 in 0.0 W/m2 CLR
03:02 4.4 °F 0.6 °F 1034.4 in WNW 22.2 mph 22.2 mph 76 % 0.0 in 0.0 W/m2 CLR
03:07 5.0 °F 1.1 °F 1034.4 in WNW 13.0 mph 13.0 mph 76 % 0.0 in 0.0 W/m2 CLR
03:08 5.0 °F 1.1 °F 1034.4 in WNW 14.8 mph 14.8 mph 76 % 0.0 in 0.0 W/m2 CLR
03:13 5.0 °F 1.1 °F 1034.4 in WNW 22.5 mph 22.5 mph 76 % 0.0 in 0.0 W/m2 CLR
03:18 5.0 °F 1.1 °F 1034.4 in WNW 16.7 mph 16.7 mph 76 % 0.0 in 0.0 W/m2 CLR
03:19 5.0 °F 0.9 °F 1034.4 in WNW 13.0 mph 13.0 mph 75 % 0.0 in 0.0 W/m2 CLR
03:24 5.6 °F 1.7 °F 1034.4 in West 13.0 mph 13.0 mph 76 % 0.0 in 0.0 W/m2 CLR
03:25 5.6 °F 1.7 °F 1034.4 in WNW 13.0 mph 13.0 mph 76 % 0.0 in 0.0 W/m2 CLR
03:30 5.0 °F 1.1 °F 1034.4 in West 18.5 mph 18.5 mph 76 % 0.0 in 0.0 W/m2 CLR
03:31 5.0 °F 1.1 °F 1034.4 in NW 18.5 mph 18.5 mph 76 % 0.0 in 0.0 W/m2 CLR
03:36 5.0 °F 1.1 °F 1034.4 in NW 16.1 mph 16.1 mph 76 % 0.0 in 0.0 W/m2 CLR
03:41 5.0 °F 1.1 °F 1034.4 in West 18.5 mph 18.5 mph 76 % 0.0 in 0.0 W/m2 CLR
03:44 4.4 °F 0.6 °F 1034.1 in West 16.7 mph 16.7 mph 76 % 0.0 in 0.0 W/m2 CLR
03:45 4.4 °F 0.6 °F 1034.1 in West 18.5 mph 18.5 mph 76 % 0.0 in 0.0 W/m2 CLR
03:49 4.4 °F 0.6 °F 1034.1 in West 14.8 mph 14.8 mph 76 % 0.0 in 0.0 W/m2 CLR
03:52 3.9 °F 0.1 °F 1034.1 in West 18.5 mph 18.5 mph 76 % 0.0 in 0.0 W/m2 CLR
03:54 4.4 °F 0.6 °F 1034.1 in WNW 8.0 mph 8.0 mph 76 % 0.0 in 0.0 W/m2 CLR
03:59 4.4 °F 0.8 °F 1034.1 in West 18.5 mph 18.5 mph 77 % 0.0 in 0.0 W/m2 CLR
04:01 5.0 °F 1.3 °F 1034.1 in WNW 16.7 mph 16.7 mph 77 % 0.0 in 0.0 W/m2 CLR
04:02 5.0 °F 1.3 °F 1034.1 in WNW 18.5 mph 18.5 mph 77 % 0.0 in 0.0 W/m2 CLR
04:07 4.4 °F 0.8 °F 1034.1 in West 20.4 mph 20.4 mph 77 % 0.0 in 0.0 W/m2 CLR
04:12 4.4 °F 0.8 °F 1034.1 in WNW 12.9 mph 12.9 mph 77 % 0.0 in 0.0 W/m2 CLR
04:18 3.9 °F 0.2 °F 1034.1 in West 16.7 mph 16.7 mph 77 % 0.0 in 0.0 W/m2 CLR
04:21 4.4 °F 0.8 °F 1034.1 in WNW 13.0 mph 13.0 mph 77 % 0.0 in 0.0 W/m2 CLR
04:22 4.4 °F 0.8 °F 1034.1 in West 16.7 mph 16.7 mph 77 % 0.0 in 0.0 W/m2 CLR
04:27 4.4 °F 0.8 °F 1033.7 in West 8.0 mph 8.0 mph 77 % 0.0 in 0.0 W/m2 CLR
04:28 4.4 °F 0.8 °F 1034.1 in WNW 14.8 mph 14.8 mph 77 % 0.0 in 0.0 W/m2 CLR
04:30 5.0 °F 1.3 °F 1033.7 in WNW 9.3 mph 9.3 mph 77 % 0.0 in 0.0 W/m2 CLR
04:34 4.4 °F 0.8 °F 1033.7 in West 9.3 mph 9.3 mph 77 % 0.0 in 0.0 W/m2 CLR
04:36 4.4 °F 0.9 °F 1033.7 in West 18.5 mph 18.5 mph 78 % 0.0 in 0.0 W/m2 CLR
04:40 4.4 °F 0.8 °F 1033.7 in WNW 18.5 mph 18.5 mph 77 % 0.0 in 0.0 W/m2 CLR
04:43 5.0 °F 1.3 °F 1033.7 in WNW 14.5 mph 14.5 mph 77 % 0.0 in 0.0 W/m2 CLR
04:45 4.4 °F 0.8 °F 1033.7 in West 14.8 mph 14.8 mph 77 % 0.0 in 0.0 W/m2 CLR
04:50 4.4 °F 0.8 °F 1033.7 in West 12.9 mph 12.9 mph 77 % 0.0 in 0.0 W/m2 CLR
04:56 3.9 °F 0.2 °F 1033.7 in West 14.8 mph 14.8 mph 77 % 0.0 in 0.0 W/m2 CLR
05:01 3.9 °F 0.2 °F 1033.7 in WNW 13.0 mph 13.0 mph 77 % 0.0 in 0.0 W/m2 CLR
05:06 4.4 °F 0.8 °F 1033.7 in WNW 18.5 mph 18.5 mph 77 % 0.0 in 0.0 W/m2 CLR
05:07 4.4 °F 0.8 °F 1033.7 in West 9.7 mph 9.7 mph 77 % 0.0 in 0.0 W/m2 CLR
05:12 5.0 °F 1.3 °F 1033.4 in WNW 17.7 mph 17.7 mph 77 % 0.0 in 0.0 W/m2 CLR
05:13 5.0 °F 1.3 °F 1033.4 in WNW 18.5 mph 18.5 mph 77 % 0.0 in 0.0 W/m2 CLR
05:18 5.0 °F 1.3 °F 1033.7 in NW 16.1 mph 16.1 mph 77 % 0.0 in 0.0 W/m2 CLR
05:20 5.0 °F 1.3 °F 1033.7 in West 18.5 mph 18.5 mph 77 % 0.0 in 0.0 W/m2 CLR
05:23 4.4 °F 0.8 °F 1033.4 in WNW 18.5 mph 18.5 mph 77 % 0.0 in 0.0 W/m2 CLR
05:26 4.4 °F 0.8 °F 1033.4 in West 9.3 mph 9.3 mph 77 % 0.0 in 0.0 W/m2 CLR
05:31 5.0 °F 1.3 °F 1033.4 in West 14.8 mph 14.8 mph 77 % 0.0 in 0.0 W/m2 CLR
05:33 5.0 °F 1.3 °F 1033.4 in West 7.4 mph 7.4 mph 77 % 0.0 in 0.0 W/m2 CLR
05:36 5.0 °F 1.3 °F 1033.4 in West 14.8 mph 14.8 mph 77 % 0.0 in 0.0 W/m2 CLR
05:40 5.0 °F 1.3 °F 1033.4 in West 16.7 mph 16.7 mph 77 % 0.0 in 0.0 W/m2 CLR
05:42 5.0 °F 1.3 °F 1033.4 in WNW 18.5 mph 18.5 mph 77 % 0.0 in 0.0 W/m2 CLR
05:47 5.0 °F 1.3 °F 1033.4 in West 20.4 mph 20.4 mph 77 % 0.0 in 0.0 W/m2 CLR
05:52 5.0 °F 1.3 °F 1033.4 in West 14.8 mph 14.8 mph 77 % 0.0 in 0.0 W/m2 CLR
05:57 5.0 °F 1.5 °F 1033.1 in WSW 13.0 mph 13.0 mph 78 % 0.0 in 0.0 W/m2 CLR
05:58 5.0 °F 1.3 °F 1033.1 in West 13.0 mph 13.0 mph 77 % 0.0 in 0.0 W/m2 CLR
06:02 5.0 °F 1.5 °F 1033.1 in WNW 16.1 mph 16.1 mph 78 % 0.0 in 0.0 W/m2 CLR
06:03 5.0 °F 1.3 °F 1033.1 in WNW 14.5 mph 14.5 mph 77 % 0.0 in 0.0 W/m2 CLR
06:08 5.0 °F 1.5 °F 1033.4 in WNW 18.5 mph 18.5 mph 78 % 0.0 in 0.0 W/m2 CLR
06:09 5.0 °F 1.3 °F 1033.4 in WSW 16.7 mph 16.7 mph 77 % 0.0 in 0.0 W/m2 CLR
06:13 5.0 °F 1.3 °F 1033.1 in West 16.7 mph 16.7 mph 77 % 0.0 in 0.0 W/m2 CLR
06:18 5.0 °F 1.3 °F 1033.1 in West 14.8 mph 14.8 mph 77 % 0.0 in 0.0 W/m2 CLR
06:21 4.4 °F 0.8 °F 1033.1 in WNW 11.1 mph 11.1 mph 77 % 0.0 in 0.0 W/m2 CLR
06:26 4.4 °F 0.8 °F 1033.1 in WNW 16.1 mph 16.1 mph 77 % 0.0 in 0.0 W/m2 CLR
06:27 4.4 °F 0.6 °F 1033.1 in WNW 16.7 mph 16.7 mph 76 % 0.0 in 0.0 W/m2 CLR
06:32 4.4 °F 0.6 °F 1033.1 in NW 16.7 mph 16.7 mph 76 % 0.0 in 0.0 W/m2 CLR
06:37 4.4 °F 0.6 °F 1032.7 in NW 18.5 mph 18.5 mph 76 % 0.0 in 0.0 W/m2 CLR
06:38 5.0 °F 0.9 °F 1033.1 in WNW 18.5 mph 18.5 mph 75 % 0.0 in 0.0 W/m2 CLR
06:39 5.0 °F 1.1 °F 1033.1 in NW 27.4 mph 27.4 mph 76 % 0.0 in 0.0 W/m2 CLR
06:44 5.0 °F 0.9 °F 1033.1 in NW 22.5 mph 22.5 mph 75 % 0.0 in 0.0 W/m2 CLR
06:45 5.0 °F 0.9 °F 1033.1 in NW 19.3 mph 19.3 mph 75 % 0.0 in 0.0 W/m2 CLR
06:50 5.6 °F 1.4 °F 1033.1 in NW 20.9 mph 20.9 mph 75 % 0.0 in 0.0 W/m2 CLR
06:55 5.6 °F 1.4 °F 1033.1 in NW 29.6 mph 29.6 mph 75 % 0.0 in 0.0 W/m2 CLR
06:56 5.6 °F 1.4 °F 1033.1 in NW 29.6 mph 29.6 mph 75 % 0.0 in 0.0 W/m2 CLR
07:00 5.6 °F 1.3 °F 1033.1 in NW 24.1 mph 24.1 mph 74 % 0.0 in 0.0 W/m2 CLR
07:01 5.6 °F 1.4 °F 1033.1 in NW 24.1 mph 24.1 mph 75 % 0.0 in 0.0 W/m2 CLR
07:06 5.6 °F 1.3 °F 1033.4 in WNW 24.1 mph 24.1 mph 74 % 0.0 in 0.0 W/m2 CLR
07:07 5.6 °F 1.3 °F 1033.4 in WNW 19.3 mph 19.3 mph 74 % 0.0 in 0.0 W/m2 CLR
07:12 5.6 °F 1.4 °F 1033.4 in NW 14.8 mph 14.8 mph 75 % 0.0 in 0.0 W/m2 CLR
07:17 5.6 °F 1.4 °F 1033.4 in WNW 16.7 mph 16.7 mph 75 % 0.0 in 0.0 W/m2 CLR
07:19 5.6 °F 1.4 °F 1033.4 in West 22.2 mph 22.2 mph 75 % 0.0 in 0.0 W/m2 CLR
07:24 5.6 °F 1.3 °F 1033.4 in WNW 18.5 mph 18.5 mph 74 % 0.0 in 0.0 W/m2 CLR
07:25 5.6 °F 1.4 °F 1033.4 in WNW 14.8 mph 14.8 mph 75 % 0.0 in 0.0 W/m2 CLR
07:29 5.6 °F 1.3 °F 1033.7 in WNW 8.0 mph 8.0 mph 74 % 0.0 in 0.0 W/m2 CLR
07:30 5.6 °F 1.3 °F 1033.7 in WNW 7.4 mph 7.4 mph 74 % 0.0 in 0.0 W/m2 CLR
07:35 5.0 °F 0.7 °F 1033.7 in WNW 13.0 mph 13.0 mph 74 % 0.0 in 0.0 W/m2 CLR
07:36 5.0 °F 0.9 °F 1033.7 in WNW 11.1 mph   75 % 0.0 in 0.0 W/m2 CLR
07:41 5.0 °F 0.7 °F 1033.4 in West 11.1 mph 11.1 mph 74 % 0.0 in 0.0 W/m2 CLR
07:46 5.0 °F 0.7 °F 1033.4 in Calm     74 % 0.0 in 0.0 W/m2 CLR
07:51 5.6 °F 1.4 °F 1033.7 in Calm     75 % 0.0 in 0.0 W/m2 CLR
07:56 5.6 °F 1.4 °F 1033.7 in WNW 18.5 mph 18.5 mph 75 % 0.0 in 0.0 W/m2 CLR
07:58 5.6 °F 1.4 °F 1033.7 in NW 13.0 mph 13.0 mph 75 % 0.0 in 0.0 W/m2 CLR
08:01 5.6 °F 1.3 °F 1033.7 in WNW 14.8 mph 14.8 mph 74 % 0.0 in 0.0 W/m2 CLR
08:04 5.6 °F 1.3 °F 1033.7 in WNW 12.9 mph 12.9 mph 74 % 0.0 in 0.0 W/m2 CLR
08:09 5.6 °F 1.1 °F 1033.7 in NW 18.5 mph 18.5 mph 73 % 0.0 in 0.0 W/m2 CLR
08:14 6.1 °F 1.6 °F 1033.7 in WNW 14.8 mph 14.8 mph 73 % 0.0 in 0.0 W/m2 OVC
08:19 6.1 °F 1.6 °F 1033.4 in NW 20.9 mph 20.9 mph 73 % 0.0 in 0.0 W/m2 OVC
08:20 6.1 °F 1.6 °F 1033.7 in NW 20.4 mph 20.4 mph 73 % 0.0 in 0.0 W/m2 OVC
08:24 6.1 °F 1.6 °F 1033.7 in NW 13.0 mph 13.0 mph 73 % 0.0 in 5.0 W/m2 OVC
08:27 6.1 °F 1.6 °F 1033.7 in NW 14.8 mph 14.8 mph 73 % 0.0 in 5.0 W/m2 OVC
08:32 6.7 °F 2.2 °F 1034.1 in NW 18.5 mph 18.5 mph 73 % 0.0 in 7.0 W/m2 BKN
08:37 6.7 °F 2.0 °F 1034.1 in NW 16.7 mph 16.7 mph 72 % 0.0 in 11.0 W/m2 BKN
08:38 6.7 °F 2.0 °F 1034.1 in WNW 14.8 mph 14.8 mph 72 % 0.0 in 11.0 W/m2 BKN
08:43 6.7 °F 2.0 °F 1034.1 in NW 14.8 mph 14.8 mph 72 % 0.0 in 11.0 W/m2 BKN
08:48 6.7 °F 2.0 °F 1034.1 in NW 16.1 mph 16.1 mph 72 % 0.0 in 12.0 W/m2 BKN
08:52 6.7 °F 2.0 °F 1034.1 in NW 14.8 mph 14.8 mph 72 % 0.0 in 12.0 W/m2 BKN
08:53 6.7 °F 2.0 °F 1034.1 in NW 13.0 mph 13.0 mph 72 % 0.0 in 12.0 W/m2 BKN
08:58 6.7 °F 2.0 °F 1034.1 in WNW 14.5 mph 14.5 mph 72 % 0.0 in 16.0 W/m2 BKN
09:08 6.7 °F 2.0 °F 1034.1 in NW 24.1 mph 24.1 mph 72 % 0.0 in 33.0 W/m2 BKN
09:10 6.7 °F 2.0 °F 1034.1 in WNW 20.4 mph 20.4 mph 72 % 0.0 in 40.0 W/m2 BKN
09:15 6.7 °F 2.0 °F 1034.1 in NW 18.5 mph 18.5 mph 72 % 0.0 in 51.0 W/m2 SCT
09:16 6.7 °F 2.0 °F 1034.1 in WNW 22.2 mph 22.2 mph 72 % 0.0 in 53.0 W/m2 SCT
09:18 6.7 °F 2.0 °F 1034.1 in WNW 20.4 mph 20.4 mph 72 % 0.0 in 58.0 W/m2 SCT
09:23 6.7 °F 1.8 °F 1034.1 in WNW 25.9 mph 25.9 mph 71 % 0.0 in 63.0 W/m2 SCT
09:25 6.7 °F 1.8 °F 1034.1 in WNW 22.2 mph 22.2 mph 71 % 0.0 in 67.0 W/m2 SCT
09:30 6.7 °F 2.0 °F 1034.1 in West 24.1 mph 24.1 mph 72 % 0.0 in 60.0 W/m2 FEW
09:35 7.2 °F 2.3 °F 1033.7 in WNW 22.2 mph 22.2 mph 71 % 0.0 in 58.0 W/m2 SCT
09:36 7.2 °F 2.3 °F 1033.7 in WNW 22.2 mph 22.2 mph 71 % 0.0 in 62.0 W/m2 SCT
09:39 7.2 °F 2.3 °F 1033.7 in WNW 22.2 mph 22.2 mph 71 % 0.0 in 67.0 W/m2 SCT
09:41 7.2 °F 2.3 °F 1033.7 in NW 25.9 mph 25.9 mph 71 % 0.0 in 69.0 W/m2 SCT
09:46 7.2 °F 2.3 °F 1033.7 in NW 24.1 mph 24.1 mph 71 % 0.0 in 67.0 W/m2 FEW
09:47 7.2 °F 2.3 °F 1033.7 in West 24.1 mph 24.1 mph 71 % 0.0 in 69.0 W/m2 FEW
09:48 7.2 °F 2.3 °F 1033.7 in WNW 25.9 mph 25.9 mph 71 % 0.0 in 70.0 W/m2 FEW
09:53 7.2 °F 2.1 °F 1034.1 in WNW 20.9 mph 20.9 mph 70 % 0.0 in 77.0 W/m2 FEW
09:54 7.2 °F 2.1 °F 1034.1 in WNW 20.4 mph 20.4 mph 70 % 0.0 in 74.0 W/m2 FEW
09:58 7.2 °F 2.1 °F 1034.1 in NW 27.8 mph 27.8 mph 70 % 0.0 in 79.0 W/m2 FEW
09:59 7.2 °F 2.1 °F 1034.1 in NW 24.1 mph 24.1 mph 70 % 0.0 in 83.0 W/m2 FEW
10:03 7.8 °F 2.7 °F 1034.1 in NW 29.6 mph 29.6 mph 70 % 0.0 in 83.0 W/m2 FEW
10:05 7.8 °F 2.7 °F 1034.1 in NW 25.9 mph 25.9 mph 70 % 0.0 in 88.0 W/m2 FEW
10:10 7.8 °F 2.4 °F 1034.1 in NW 24.1 mph 24.1 mph 69 % 0.0 in 86.0 W/m2 CLR
10:15 7.8 °F 2.4 °F 1034.1 in WNW 22.2 mph 22.2 mph 69 % 0.0 in 97.0 W/m2 CLR
10:16 7.8 °F 2.4 °F 1034.1 in NW 18.5 mph 18.5 mph 69 % 0.0 in 105.0 W/m2 CLR
10:21 7.8 °F 2.4 °F 1034.1 in WNW 18.5 mph 18.5 mph 69 % 0.0 in 132.0 W/m2 CLR
10:26 8.3 °F 2.8 °F 1033.7 in NW 25.9 mph 25.9 mph 68 % 0.0 in 128.0 W/m2 CLR
10:31 8.3 °F 2.8 °F 1034.1 in NNW 24.1 mph 24.1 mph 68 % 0.0 in 153.0 W/m2 CLR
10:32 8.3 °F 2.8 °F 1034.1 in NW 25.9 mph 25.9 mph 68 % 0.0 in 156.0 W/m2 CLR
10:34 8.3 °F 2.8 °F 1034.1 in NW 18.5 mph 18.5 mph 68 % 0.0 in 169.0 W/m2 CLR
10:37 8.3 °F 2.6 °F 1034.4 in NW 18.5 mph 18.5 mph 67 % 0.0 in 163.0 W/m2 CLR
10:42 8.3 °F 2.6 °F 1034.4 in NW 29.6 mph 29.6 mph 67 % 0.0 in 179.0 W/m2 CLR
10:47 8.3 °F 2.6 °F 1034.4 in NW 27.8 mph 27.8 mph 67 % 0.0 in 153.0 W/m2 CLR
10:48 8.3 °F 2.6 °F 1034.4 in NW 27.8 mph 27.8 mph 67 % 0.0 in 153.0 W/m2 CLR
10:51 8.9 °F 3.1 °F 1034.1 in NNW 20.4 mph 20.4 mph 67 % 0.0 in 162.0 W/m2 CLR
10:55 8.9 °F 2.9 °F 1034.1 in NW 20.9 mph 20.9 mph 66 % 0.0 in 181.0 W/m2 CLR
11:00 8.9 °F 2.9 °F 1034.1 in WNW 20.4 mph 20.4 mph 66 % 0.0 in 274.0 W/m2 CLR
11:05 8.9 °F 2.9 °F 1033.7 in WNW 22.5 mph 22.5 mph 66 % 0.0 in 253.0 W/m2 CLR
11:07 8.9 °F 2.9 °F 1033.7 in NW 24.1 mph 24.1 mph 66 % 0.0 in 258.0 W/m2 CLR
11:12 8.9 °F 2.9 °F 1033.7 in NW 14.8 mph 14.8 mph 66 % 0.0 in 234.0 W/m2 CLR
11:13 8.9 °F 2.9 °F 1033.7 in NNW 16.7 mph 16.7 mph 66 % 0.0 in 225.0 W/m2 CLR
11:17 8.9 °F 2.9 °F 1033.7 in NW 22.2 mph 22.2 mph 66 % 0.0 in 234.0 W/m2 CLR
11:22 8.9 °F 2.7 °F 1033.7 in WNW 27.8 mph 27.8 mph 65 % 0.0 in 239.0 W/m2 CLR
11:26 8.9 °F 2.9 °F 1033.7 in NNW 29.0 mph 29.0 mph 66 % 0.0 in 225.0 W/m2 CLR
11:27 8.9 °F 2.7 °F 1033.7 in NW 31.5 mph 31.5 mph 65 % 0.0 in 229.0 W/m2 CLR
11:32 9.4 °F 3.2 °F 1033.4 in NW 18.5 mph 18.5 mph 65 % 0.0 in 234.0 W/m2 CLR
11:33 9.4 °F 3.4 °F 1033.4 in NNW 24.1 mph 24.1 mph 66 % 0.0 in 234.0 W/m2 CLR
11:35 9.4 °F 3.4 °F 1033.4 in NW 27.8 mph 27.8 mph 66 % 0.0 in 239.0 W/m2 CLR
11:39 9.4 °F 3.2 °F 1033.4 in WNW 29.6 mph 29.6 mph 65 % 0.0 in 230.0 W/m2 CLR
11:44 9.4 °F 3.2 °F 1033.1 in NNW 31.5 mph 31.5 mph 65 % 0.0 in 229.0 W/m2 CLR
11:45 9.4 °F 3.2 °F 1033.1 in NW 31.5 mph 31.5 mph 65 % 0.0 in 229.0 W/m2 CLR
11:46 9.4 °F 3.2 °F 1033.1 in NW 29.6 mph 29.6 mph 65 % 0.0 in 239.0 W/m2 CLR
11:52 9.4 °F 3.2 °F 1033.1 in NW 18.5 mph 18.5 mph 65 % 0.0 in 232.0 W/m2 CLR
11:57 9.4 °F 3.2 °F 1032.7 in NW 18.5 mph 18.5 mph 65 % 0.0 in 246.0 W/m2 CLR
11:58 9.4 °F 3.2 °F 1032.7 in NW 25.9 mph 25.9 mph 65 % 0.0 in 246.0 W/m2 CLR
12:03 9.4 °F 3.2 °F 1032.7 in NW 22.5 mph 22.5 mph 65 % 0.0 in 246.0 W/m2 CLR
12:04 9.4 °F 2.9 °F 1032.7 in NW 29.6 mph 29.6 mph 64 % 0.0 in 243.0 W/m2 CLR
12:09 10.0 °F 3.7 °F 1032.7 in NW 27.8 mph 27.8 mph 65 % 0.0 in 244.0 W/m2 CLR
12:10 10.0 °F 3.7 °F 1032.4 in NW 27.8 mph 27.8 mph 65 % 0.0 in 246.0 W/m2 CLR
12:11 10.0 °F 3.5 °F 1032.4 in NW 27.8 mph 27.8 mph 64 % 0.0 in 246.0 W/m2 CLR
12:15 10.0 °F 3.5 °F 1032.4 in NNW 24.1 mph 24.1 mph 64 % 0.0 in 241.0 W/m2 CLR
12:20 10.0 °F 3.5 °F 1032.4 in NW 33.3 mph 33.3 mph 64 % 0.0 in 234.0 W/m2 CLR
12:22 10.0 °F 3.5 °F 1032.4 in NW 31.5 mph 31.5 mph 64 % 0.0 in 234.0 W/m2 CLR
12:27 10.0 °F 3.5 °F 1032.1 in NW 18.5 mph 18.5 mph 64 % 0.0 in 236.0 W/m2 CLR
12:28 10.0 °F 3.5 °F 1032.4 in NNW 18.5 mph 18.5 mph 64 % 0.0 in 236.0 W/m2 CLR
12:29 10.0 °F 3.5 °F 1032.1 in NW 31.5 mph 31.5 mph 64 % 0.0 in 236.0 W/m2 CLR
12:34 10.0 °F 3.5 °F 1032.1 in NNW 27.8 mph 27.8 mph 64 % 0.0 in 251.0 W/m2 CLR
12:39 10.6 °F 3.8 °F 1032.1 in NNW 25.9 mph 25.9 mph 63 % 0.0 in 250.0 W/m2 CLR
12:40 10.6 °F 3.8 °F 1032.1 in NNW 25.9 mph 25.9 mph 63 % 0.0 in 250.0 W/m2 CLR
12:45 10.6 °F 3.8 °F 1032.1 in NNW 25.9 mph 25.9 mph 63 % 0.0 in 241.0 W/m2 CLR
12:49 10.6 °F 3.8 °F 1031.7 in NNW 25.9 mph 25.9 mph 63 % 0.0 in 241.0 W/m2 CLR
12:52 10.6 °F 3.8 °F 1031.7 in NW 18.5 mph 18.5 mph 63 % 0.0 in 229.0 W/m2 CLR
12:54 10.6 °F 3.8 °F 1031.7 in NW 16.1 mph 16.1 mph 63 % 0.0 in 220.0 W/m2 CLR
12:59 10.6 °F 3.8 °F 1031.4 in NW 25.9 mph 25.9 mph 63 % 0.0 in 197.0 W/m2 CLR
13:01 10.6 °F 3.8 °F 1031.4 in North 29.6 mph 29.6 mph 63 % 0.0 in 197.0 W/m2 CLR
13:05 10.6 °F 3.8 °F 1031.4 in NNW 33.3 mph 33.3 mph 63 % 0.0 in 209.0 W/m2 CLR
13:10 10.6 °F 3.8 °F 1031.4 in NNW 22.2 mph 22.2 mph 63 % 0.0 in 214.0 W/m2 CLR
13:15 10.6 °F 3.8 °F 1031.0 in North 33.3 mph 33.3 mph 63 % 0.0 in 214.0 W/m2 CLR
13:16 10.6 °F 3.8 °F 1031.0 in North 33.3 mph 33.3 mph 63 % 0.0 in 218.0 W/m2 CLR
13:21 10.6 °F 3.8 °F 1031.0 in NNW 31.5 mph 31.5 mph 63 % 0.0 in 229.0 W/m2 CLR
13:22 10.6 °F 3.8 °F 1031.0 in North 31.5 mph 31.5 mph 63 % 0.0 in 230.0 W/m2 CLR
13:26 10.6 °F 3.8 °F 1030.7 in NNW 32.2 mph 32.2 mph 63 % 0.0 in 276.0 W/m2 CLR
13:28 11.1 °F 4.3 °F 1030.7 in NNW 29.6 mph 29.6 mph 63 % 0.0 in 264.0 W/m2 CLR
13:33 11.1 °F 4.1 °F 1030.7 in NNW 32.2 mph 32.2 mph 62 % 0.0 in 271.0 W/m2 CLR
13:34 11.1 °F 4.1 °F 1030.7 in North 33.3 mph 33.3 mph 62 % 0.0 in 250.0 W/m2 CLR
13:35 11.1 °F 4.1 °F 1030.7 in NNW 33.3 mph 33.3 mph 62 % 0.0 in 250.0 W/m2 CLR
13:40 11.1 °F 4.1 °F 1030.7 in NNE 31.5 mph 31.5 mph 62 % 0.0 in 243.0 W/m2 CLR
13:41 11.1 °F 4.1 °F 1030.4 in NW 24.1 mph 24.1 mph 62 % 0.0 in 227.0 W/m2 CLR
13:43 11.1 °F 4.1 °F 1030.4 in NNW 24.1 mph 24.1 mph 62 % 0.0 in 230.0 W/m2 CLR
13:48 11.1 °F 4.1 °F 1030.4 in North 27.4 mph 27.4 mph 62 % 0.0 in 234.0 W/m2 CLR
13:49 11.1 °F 4.1 °F 1030.4 in North 29.6 mph 29.6 mph 62 % 0.0 in 232.0 W/m2 CLR
13:54 11.1 °F 4.1 °F 1030.0 in NW 29.6 mph 29.6 mph 62 % 0.0 in 237.0 W/m2 CLR
13:57 11.1 °F 4.3 °F 1030.4 in NNW 22.2 mph 22.2 mph 63 % 0.0 in 251.0 W/m2 CLR
14:01 11.1 °F 4.3 °F 1030.0 in North 25.9 mph 25.9 mph 63 % 0.0 in 221.0 W/m2 CLR
14:06 11.1 °F 4.1 °F 1030.0 in NW 24.1 mph 24.1 mph 62 % 0.0 in 258.0 W/m2 CLR
14:07 11.1 °F 4.1 °F 1030.0 in North 24.1 mph 24.1 mph 62 % 0.0 in 265.0 W/m2 CLR
14:12 11.1 °F 4.1 °F 1029.7 in NW 27.8 mph 27.8 mph 62 % 0.0 in 255.0 W/m2 CLR
14:16 11.7 °F 4.4 °F 1029.7 in North 29.6 mph 29.6 mph 61 % 0.0 in 246.0 W/m2 CLR
14:21 11.7 °F 4.6 °F 1029.7 in NNW 22.2 mph 22.2 mph 62 % 0.0 in 325.0 W/m2 CLR
14:25 11.7 °F 4.4 °F 1029.3 in NW 22.5 mph 22.5 mph 61 % 0.0 in 287.0 W/m2 CLR
14:30 11.7 °F 4.4 °F 1029.3 in NW 24.1 mph 24.1 mph 61 % 0.0 in 223.0 W/m2 CLR
14:31 11.7 °F 4.4 °F 1029.3 in North 24.1 mph 24.1 mph 61 % 0.0 in 223.0 W/m2 CLR
14:36 11.7 °F 4.4 °F 1029.0 in NW 20.4 mph 20.4 mph 61 % 0.0 in 227.0 W/m2 CLR
14:37 11.7 °F 4.4 °F 1029.3 in North 20.4 mph 20.4 mph 61 % 0.0 in 248.0 W/m2 CLR
14:42 11.7 °F 4.2 °F 1029.0 in North 22.5 mph 22.5 mph 60 % 0.0 in 197.0 W/m2 CLR
14:43 11.7 °F 4.2 °F 1029.0 in NW 25.9 mph 25.9 mph 60 % 0.0 in 195.0 W/m2 CLR
14:48 11.7 °F 4.2 °F 1029.0 in NNW 16.7 mph 16.7 mph 60 % 0.0 in 257.0 W/m2 CLR
14:49 11.7 °F 4.2 °F 1029.0 in NNW 22.5 mph 22.5 mph 60 % 0.0 in 237.0 W/m2 CLR
14:53 11.7 °F 3.9 °F 1029.0 in North 29.6 mph 29.6 mph 59 % 0.0 in 220.0 W/m2 CLR
14:58 11.7 °F 3.7 °F 1029.0 in NW 30.6 mph 30.6 mph 58 % 0.0 in 135.0 W/m2 CLR
15:01 11.7 °F 3.9 °F 1029.0 in NW 22.2 mph 22.2 mph 59 % 0.0 in 160.0 W/m2 CLR
15:04 11.7 °F 3.9 °F 1029.0 in NNW 22.5 mph 23.0 mph 59 % 0.0 in 200.0 W/m2 CLR
15:06 11.7 °F 3.9 °F 1029.0 in NNW 29.6 mph 29.6 mph 59 % 0.0 in 141.0 W/m2 CLR
15:11 11.7 °F 3.9 °F 1028.7 in North 31.5 mph 31.5 mph 59 % 0.0 in 134.0 W/m2 CLR
15:13 11.7 °F 3.9 °F 1028.7 in North 24.1 mph 24.1 mph 59 % 0.0 in 155.0 W/m2 CLR
15:18 11.7 °F 3.9 °F 1028.7 in NW 24.1 mph 24.1 mph 59 % 0.0 in 197.0 W/m2 CLR
15:20 11.7 °F 3.9 °F 1028.7 in North 22.2 mph 22.2 mph 59 % 0.0 in 239.0 W/m2 CLR
15:24 11.7 °F 3.4 °F 1028.3 in NNW 37.0 mph 37.0 mph 57 % 0.0 in 134.0 W/m2 CLR
15:25 11.7 °F 3.4 °F 1028.3 in NW 37.0 mph 37.0 mph 57 % 0.0 in 125.0 W/m2 CLR
15:30 11.7 °F 3.2 °F 1028.3 in NW 31.5 mph 31.5 mph 56 % 0.0 in 118.0 W/m2 CLR
15:31 11.7 °F 3.2 °F 1028.3 in NNW 25.9 mph 25.9 mph 56 % 0.0 in 111.0 W/m2 CLR
15:35 11.7 °F 2.9 °F 1028.3 in NW 35.2 mph 35.2 mph 55 % 0.0 in 181.0 W/m2 CLR
15:38 11.7 °F 2.7 °F 1028.3 in NNW 35.2 mph 35.2 mph 54 % 0.0 in 97.0 W/m2 CLR
15:42 11.7 °F 2.9 °F 1028.3 in NNW 20.4 mph 20.4 mph 55 % 0.0 in 111.0 W/m2 CLR
15:47 11.7 °F 2.7 °F 1028.3 in NW 25.9 mph 25.9 mph 54 % 0.0 in 76.0 W/m2 CLR
15:52 11.7 °F 2.7 °F 1028.3 in NNW 33.3 mph 33.3 mph 54 % 0.0 in 98.0 W/m2 CLR
15:54 11.7 °F 2.7 °F 1028.3 in NNW 35.2 mph 35.2 mph 54 % 0.0 in 74.0 W/m2 CLR
15:59 11.7 °F 2.7 °F 1028.3 in North 33.3 mph 33.3 mph 54 % 0.0 in 63.0 W/m2 FEW
16:04 11.7 °F 2.9 °F 1028.0 in NNW 35.2 mph 35.2 mph 55 % 0.0 in 60.0 W/m2 FEW
16:09 11.7 °F 2.9 °F 1028.0 in NNW 22.5 mph 22.5 mph 55 % 0.0 in 42.0 W/m2 SCT
16:10 11.7 °F 2.9 °F 1028.0 in NNW 31.5 mph 31.5 mph 55 % 0.0 in 40.0 W/m2 SCT
16:11 11.7 °F 2.9 °F 1028.0 in NNW 31.5 mph 31.5 mph 55 % 0.0 in 40.0 W/m2 SCT
16:16 11.7 °F 2.9 °F 1028.0 in NW 31.5 mph 31.5 mph 55 % 0.0 in 39.0 W/m2 BKN
16:17 11.7 °F 2.9 °F 1028.3 in North 30.6 mph 30.6 mph 55 % 0.0 in 47.0 W/m2 BKN
16:22 11.7 °F 2.9 °F 1028.3 in NNW 30.6 mph 30.6 mph 55 % 0.0 in 37.0 W/m2 BKN
16:25 11.7 °F 2.9 °F 1028.3 in NNW 29.6 mph 29.6 mph 55 % 0.0 in 39.0 W/m2 BKN
16:27 11.7 °F 3.2 °F 1028.3 in NNW 16.7 mph 16.7 mph 56 % 0.0 in 44.0 W/m2 BKN
16:32 11.7 °F 3.2 °F 1028.0 in North 22.2 mph 22.2 mph 56 % 0.0 in 37.0 W/m2 BKN
16:36 11.1 °F 2.9 °F 1028.0 in NW 20.4 mph 20.4 mph 57 % 0.0 in 40.0 W/m2 BKN
16:38 11.1 °F 2.7 °F 1028.0 in North 31.5 mph 31.5 mph 56 % 0.0 in 37.0 W/m2 BKN
16:43 11.1 °F 2.7 °F 1028.0 in NW 31.5 mph 31.5 mph 56 % 0.0 in 53.0 W/m2 SCT
16:48 11.1 °F 2.7 °F 1028.0 in NW 16.7 mph 16.7 mph 56 % 0.0 in 46.0 W/m2 SCT
16:50 11.1 °F 2.7 °F 1028.0 in NNW 27.8 mph 27.8 mph 56 % 0.0 in 46.0 W/m2 SCT
16:51 11.1 °F 2.7 °F 1028.0 in North 27.8 mph 27.8 mph 56 % 0.0 in 49.0 W/m2 SCT
16:55 11.1 °F 2.7 °F 1028.0 in NW 29.6 mph 29.6 mph 56 % 0.0 in 46.0 W/m2 BKN
16:58 11.1 °F 2.7 °F 1028.0 in NW 35.2 mph 35.2 mph 56 % 0.0 in 39.0 W/m2 BKN
17:01 11.1 °F 2.7 °F 1028.0 in NNW 27.8 mph 27.8 mph 56 % 0.0 in 46.0 W/m2 BKN
17:06 11.1 °F 2.7 °F 1027.7 in NW 18.5 mph 18.5 mph 56 % 0.0 in 33.0 W/m2 BKN
17:08 11.1 °F 2.7 °F 1027.7 in NW 18.5 mph 18.5 mph 56 % 0.0 in 32.0 W/m2 BKN
17:13 11.1 °F 2.9 °F 1027.7 in NW 20.4 mph 20.4 mph 57 % 0.0 in 18.0 W/m2 BKN
17:16 11.1 °F 2.9 °F 1027.7 in WNW 18.5 mph 18.5 mph 57 % 0.0 in 12.0 W/m2 BKN
17:18 11.1 °F 2.9 °F 1027.7 in NNW 22.2 mph 22.2 mph 57 % 0.0 in 12.0 W/m2 BKN
17:23 11.1 °F 2.9 °F 1027.3 in North 29.6 mph 29.6 mph 57 % 0.0 in 7.0 W/m2 BKN
17:28 11.1 °F 2.9 °F 1027.3 in NW 29.6 mph 29.6 mph 57 % 0.0 in 0.0 W/m2 OVC
17:30 11.1 °F 2.9 °F 1027.3 in NW 37.0 mph 37.0 mph 57 % 0.0 in 0.0 W/m2 OVC
17:35 11.1 °F 2.9 °F 1027.0 in NNW 25.9 mph 25.9 mph 57 % 0.0 in 0.0 W/m2 OVC
17:37 11.1 °F 2.9 °F 1027.0 in NNW 22.2 mph 22.2 mph 57 % 0.0 in 0.0 W/m2 OVC
17:41 11.1 °F 2.9 °F 1027.0 in NNW 24.1 mph 24.1 mph 57 % 0.0 in 0.0 W/m2 OVC
17:43 11.1 °F 3.2 °F 1027.0 in WNW 18.5 mph 18.5 mph 58 % 0.0 in 0.0 W/m2 CLR
17:46 11.1 °F 3.2 °F 1027.0 in NNW 24.1 mph 24.1 mph 58 % 0.0 in 0.0 W/m2 CLR
17:48 11.1 °F 3.2 °F 1027.0 in NNW 35.2 mph 35.2 mph 58 % 0.0 in 0.0 W/m2 CLR
17:53 11.1 °F 3.2 °F 1027.0 in North 24.1 mph 24.1 mph 58 % 0.0 in 0.0 W/m2 CLR
17:57 11.1 °F 3.2 °F 1027.3 in NNW 18.5 mph 18.5 mph 58 % 0.0 in 0.0 W/m2 CLR
17:59 11.1 °F 3.2 °F 1027.3 in North 16.1 mph 16.1 mph 58 % 0.0 in 0.0 W/m2 CLR
18:02 11.1 °F 3.2 °F 1027.3 in NNE 25.9 mph 25.9 mph 58 % 0.0 in 0.0 W/m2 CLR
18:04 11.1 °F 3.2 °F 1027.3 in NNE 25.7 mph 25.7 mph 58 % 0.0 in 0.0 W/m2 CLR
18:07 11.1 °F 3.4 °F 1027.3 in NNW 24.1 mph 24.1 mph 59 % 0.0 in 0.0 W/m2 CLR
18:12 11.1 °F 3.4 °F 1027.0 in North 33.8 mph 33.8 mph 59 % 0.0 in 0.0 W/m2 CLR
18:17 11.1 °F 3.6 °F 1026.6 in NNW 25.9 mph 25.9 mph 60 % 0.0 in 0.0 W/m2 CLR
18:18 11.1 °F 3.6 °F 1026.6 in NNW 29.0 mph 29.0 mph 60 % 0.0 in 0.0 W/m2 CLR
18:23 11.1 °F 3.6 °F 1027.0 in North 30.6 mph 30.6 mph 60 % 0.0 in 0.0 W/m2 CLR
18:25 11.1 °F 3.6 °F 1027.0 in NNW 35.2 mph 35.2 mph 60 % 0.0 in 0.0 W/m2 CLR
18:28 11.1 °F 3.6 °F 1027.0 in NNW 27.8 mph 27.8 mph 60 % 0.0 in 0.0 W/m2 CLR
18:32 11.1 °F 3.6 °F 1027.0 in North 31.5 mph 31.5 mph 60 % 0.0 in 0.0 W/m2 CLR
18:35 11.1 °F 3.6 °F 1027.3 in North 27.8 mph 27.8 mph 60 % 0.0 in 0.0 W/m2 CLR
18:40 11.1 °F 3.9 °F 1027.0 in North 38.9 mph 38.9 mph 61 % 0.0 in 0.0 W/m2 CLR
18:41 11.1 °F 3.9 °F 1027.3 in North 37.0 mph 37.0 mph 61 % 0.0 in 0.0 W/m2 CLR
18:42 11.1 °F 3.9 °F 1027.0 in NNW 37.0 mph 37.0 mph 61 % 0.0 in 0.0 W/m2 CLR
18:47 11.1 °F 3.9 °F 1027.0 in NNW 31.5 mph 31.5 mph 61 % 0.0 in 0.0 W/m2 CLR
18:52 11.1 °F 3.9 °F 1027.0 in NNW 29.6 mph 29.6 mph 61 % 0.0 in 0.0 W/m2 CLR
18:55 11.1 °F 3.6 °F 1027.0 in NW 22.2 mph 22.2 mph 60 % 0.0 in 0.0 W/m2 CLR
18:58 11.1 °F 3.9 °F 1026.6 in NW 27.8 mph 27.8 mph 61 % 0.0 in 0.0 W/m2 CLR
19:01 11.1 °F 3.9 °F 1026.6 in NNW 29.0 mph 29.0 mph 61 % 0.0 in 0.0 W/m2 CLR
19:03 11.1 °F 3.9 °F 1026.6 in NNW 37.0 mph 37.0 mph 61 % 0.0 in 0.0 W/m2 CLR
19:08 11.1 °F 4.1 °F 1026.3 in NW 38.6 mph 38.6 mph 62 % 0.0 in 0.0 W/m2 CLR
19:10 11.1 °F 4.1 °F 1026.3 in NNW 38.9 mph 38.9 mph 62 % 0.0 in 0.0 W/m2 CLR
19:15 11.1 °F 4.1 °F 1025.6 in NNW 45.1 mph 45.1 mph 62 % 0.0 in 0.0 W/m2 CLR
19:17 11.1 °F 4.3 °F 1025.6 in NW 44.4 mph 44.4 mph 63 % 0.0 in 0.0 W/m2 CLR
19:20 11.1 °F 4.3 °F 1025.3 in NNW 35.2 mph 35.2 mph 63 % 0.0 in 0.0 W/m2 CLR
19:22 11.1 °F 4.3 °F 1025.3 in NW 37.0 mph 37.0 mph 63 % 0.0 in 0.0 W/m2 CLR
19:27 11.1 °F 4.6 °F 1025.3 in NW 38.9 mph 38.9 mph 64 % 0.0 in 0.0 W/m2 CLR
19:32 11.1 °F 4.8 °F 1025.3 in NW 42.6 mph 42.6 mph 65 % 0.0 in 0.0 W/m2 CLR
19:37 11.1 °F 5.0 °F 1025.3 in NW 38.9 mph 38.9 mph 66 % 0.0 in 0.0 W/m2 CLR
19:38 11.1 °F 5.0 °F 1025.3 in NW 38.9 mph 38.9 mph 66 % 0.0 in 0.0 W/m2 CLR
19:39 11.1 °F 5.0 °F 1025.3 in NW 33.8 mph 33.8 mph 66 % 0.0 in 0.0 W/m2 CLR
19:43 11.1 °F 5.0 °F 1025.3 in NW 27.8 mph 27.8 mph 66 % 0.0 in 0.0 W/m2 CLR
19:47 11.1 °F 5.2 °F 1025.3 in NNW 42.6 mph 42.6 mph 67 % 0.0 in 0.0 W/m2 CLR
19:48 11.1 °F 5.0 °F 1025.3 in NNW 37.0 mph 37.0 mph 66 % 0.0 in 0.0 W/m2 CLR
19:53 11.1 °F 5.2 °F 1025.3 in NW 35.2 mph 35.2 mph 67 % 0.0 in 0.0 W/m2 CLR
19:55 11.1 °F 5.2 °F 1025.3 in NW 22.2 mph 22.2 mph 67 % 0.0 in 0.0 W/m2 CLR
20:00 11.1 °F 5.4 °F 1025.3 in NNW 38.9 mph 38.9 mph 68 % 0.0 in 0.0 W/m2 CLR
20:03 11.1 °F 5.4 °F 1025.3 in North 33.3 mph 33.3 mph 68 % 0.0 in 0.0 W/m2 CLR
20:04 11.1 °F 5.4 °F 1025.3 in North 40.7 mph 40.7 mph 68 % 0.0 in 0.0 W/m2 CLR
20:09 11.1 °F 5.6 °F 1025.3 in NNW 37.0 mph 37.0 mph 69 % 0.0 in 0.0 W/m2 CLR
20:10 11.1 °F 5.6 °F 1025.3 in North 25.9 mph 25.9 mph 69 % 0.0 in 0.0 W/m2 CLR
20:14 11.1 °F 5.6 °F 1025.6 in NNW 29.6 mph 29.6 mph 69 % 0.0 in 0.0 W/m2 CLR
20:19 11.1 °F 5.8 °F 1025.6 in North 40.7 mph 40.7 mph 70 % 0.0 in 0.0 W/m2 CLR
20:22 11.1 °F 5.8 °F 1025.6 in NNE 31.5 mph 31.5 mph 70 % 0.0 in 0.0 W/m2 CLR
20:23 11.1 °F 5.8 °F 1025.6 in North 29.6 mph 29.6 mph 70 % 0.0 in 0.0 W/m2 CLR
20:27 11.1 °F 6.1 °F 1025.6 in NNW 31.5 mph 31.5 mph 71 % 0.0 in 0.0 W/m2 CLR
20:32 11.1 °F 6.1 °F 1026.0 in NNW 25.9 mph 25.9 mph 71 % 0.0 in 0.0 W/m2 CLR
20:37 11.1 °F 6.3 °F 1026.0 in North 40.7 mph 40.7 mph 72 % 0.0 in 0.0 W/m2 CLR
20:42 11.1 °F 6.3 °F 1025.6 in NNW 35.4 mph 35.4 mph 72 % 0.0 in 0.0 W/m2 CLR
20:46 11.1 °F 6.3 °F 1025.6 in NNW 22.2 mph 22.2 mph 72 % 0.0 in 0.0 W/m2 CLR
20:47 11.1 °F 6.3 °F 1025.6 in North 29.6 mph 29.6 mph 72 % 0.0 in 0.0 W/m2 CLR
20:51 11.1 °F 6.4 °F 1025.6 in NNW 29.6 mph 29.6 mph 73 % 0.0 in 0.0 W/m2 CLR
20:53 11.1 °F 6.4 °F 1025.6 in North 27.8 mph 27.8 mph 73 % 0.0 in 0.0 W/m2 CLR
20:58 10.6 °F 6.1 °F 1025.6 in North 20.4 mph 20.4 mph 74 % 0.0 in 0.0 W/m2 CLR
21:03 10.6 °F 6.1 °F 1025.3 in NNW 33.3 mph 33.3 mph 74 % 0.0 in 0.0 W/m2 CLR
21:04 10.6 °F 6.1 °F 1025.6 in NNW 33.3 mph 33.3 mph 74 % 0.0 in 0.0 W/m2 CLR
21:06 10.6 °F 6.3 °F 1025.6 in NNW 43.4 mph 43.4 mph 75 % 0.0 in 0.0 W/m2 CLR
21:09 10.6 °F 6.3 °F 1025.6 in North 38.9 mph 38.9 mph 75 % 0.0 in 0.0 W/m2 CLR
21:12 10.6 °F 6.3 °F 1025.3 in NNW 33.8 mph 33.8 mph 75 % 0.0 in 0.0 W/m2 CLR
21:15 10.6 °F 6.3 °F 1025.3 in NNW 37.0 mph 37.0 mph 75 % 0.0 in 0.0 W/m2 CLR
21:17 10.6 °F 6.5 °F 1025.3 in North 33.8 mph 33.8 mph 76 % 0.0 in 0.0 W/m2 CLR
21:22 10.6 °F 6.5 °F 1025.3 in North 46.3 mph 46.3 mph 76 % 0.0 in 0.0 W/m2 CLR
21:24 10.6 °F 6.5 °F 1025.3 in NNW 46.3 mph 46.3 mph 76 % 0.0 in 0.0 W/m2 CLR
21:26 10.6 °F 6.5 °F 1025.3 in North 31.5 mph 31.5 mph 76 % 0.0 in 0.0 W/m2 CLR
21:30 10.6 °F 6.7 °F 1025.3 in NW 33.3 mph 33.3 mph 77 % 0.0 in 0.0 W/m2 CLR
21:31 10.6 °F 6.7 °F 1025.3 in North 31.5 mph 31.5 mph 77 % 0.0 in 0.0 W/m2 CLR
21:36 10.6 °F 6.7 °F 1025.3 in North 37.0 mph 37.0 mph 77 % 0.0 in 0.0 W/m2 CLR
21:38 10.6 °F 6.7 °F 1025.3 in North 37.0 mph 37.0 mph 77 % 0.0 in 0.0 W/m2 CLR
21:43 10.6 °F 6.7 °F 1025.3 in North 37.0 mph 37.0 mph 77 % 0.0 in 0.0 W/m2 CLR
21:48 10.6 °F 6.9 °F 1025.3 in North 37.0 mph 37.0 mph 78 % 0.0 in 0.0 W/m2 CLR
21:49 10.6 °F 6.7 °F 1025.3 in North 30.6 mph 30.6 mph 77 % 0.0 in 0.0 W/m2 CLR
21:51 10.6 °F 6.9 °F 1025.3 in NNW 38.9 mph 38.9 mph 78 % 0.0 in 0.0 W/m2 CLR
21:55 10.6 °F 6.7 °F 1025.3 in North 29.6 mph 29.6 mph 77 % 0.0 in 0.0 W/m2 CLR
22:00 10.6 °F 6.9 °F 1025.3 in NNW 24.1 mph 24.1 mph 78 % 0.0 in 0.0 W/m2 CLR
22:02 10.6 °F 6.9 °F 1025.3 in North 27.8 mph 27.8 mph 78 % 0.0 in 0.0 W/m2 CLR
22:07 10.6 °F 6.9 °F 1025.3 in NNW 35.2 mph 35.2 mph 78 % 0.0 in 0.0 W/m2 CLR
22:12 10.6 °F 6.9 °F 1025.3 in North 31.5 mph 31.5 mph 78 % 0.0 in 0.0 W/m2 CLR
22:13 10.6 °F 6.9 °F 1025.3 in North 24.1 mph 24.1 mph 78 % 0.0 in 0.0 W/m2 CLR
22:18 10.6 °F 6.9 °F 1025.3 in North 30.6 mph 30.6 mph 78 % 0.0 in 0.0 W/m2 CLR
22:19 10.6 °F 6.9 °F 1025.3 in North 22.5 mph 24.9 mph 78 % 0.0 in 0.0 W/m2 CLR
22:20 10.6 °F 6.9 °F 1025.3 in North 33.3 mph 33.3 mph 78 % 0.0 in 0.0 W/m2 CLR
22:25 10.6 °F 6.9 °F 1025.6 in NNW 42.6 mph 42.6 mph 78 % 0.0 in 0.0 W/m2 CLR
22:26 10.6 °F 6.9 °F 1025.6 in NNW 33.3 mph 33.3 mph 78 % 0.0 in 0.0 W/m2 CLR
22:27 10.6 °F 6.9 °F 1025.6 in NNE 33.3 mph 33.3 mph 78 % 0.0 in 0.0 W/m2 CLR
22:31 11.1 °F 7.4 °F 1025.6 in NNW 33.3 mph 33.3 mph 78 % 0.0 in 0.0 W/m2 CLR
22:36 11.1 °F 7.4 °F 1025.6 in North 29.6 mph 29.6 mph 78 % 0.0 in 0.0 W/m2 CLR
22:37 11.1 °F 7.4 °F 1025.6 in North 31.5 mph 31.5 mph 78 % 0.0 in 0.0 W/m2 CLR
22:42 11.1 °F 7.4 °F 1025.6 in North 20.4 mph 20.4 mph 78 % 0.0 in 0.0 W/m2 CLR
22:47 11.1 °F 7.6 °F 1026.0 in NNE 24.1 mph 24.1 mph 79 % 0.0 in 0.0 W/m2 CLR
22:48 11.1 °F 7.6 °F 1026.0 in NE 24.1 mph 24.1 mph 79 % 0.0 in 0.0 W/m2 CLR
22:49 11.1 °F 7.6 °F 1026.0 in NE 16.7 mph 16.7 mph 79 % 0.0 in 0.0 W/m2 CLR
22:54 11.1 °F 7.6 °F 1026.0 in NNE 29.6 mph 29.6 mph 79 % 0.0 in 0.0 W/m2 CLR
22:57 11.1 °F 7.6 °F 1026.0 in NNE 20.4 mph 20.4 mph 79 % 0.0 in 0.0 W/m2 CLR
23:02 11.1 °F 7.6 °F 1026.0 in NNW 24.1 mph 24.1 mph 79 % 0.0 in 0.0 W/m2 CLR
23:06 11.1 °F 7.6 °F 1026.0 in North 18.5 mph 18.5 mph 79 % 0.0 in 0.0 W/m2 CLR
23:09 11.1 °F 7.6 °F 1026.0 in North 24.1 mph 24.1 mph 79 % 0.0 in 0.0 W/m2 CLR
23:14 10.6 °F 7.2 °F 1026.0 in North 31.5 mph 31.5 mph 80 % 0.0 in 0.0 W/m2 CLR
23:15 10.6 °F 7.2 °F 1026.0 in NNE 25.9 mph 25.9 mph 80 % 0.0 in 0.0 W/m2 CLR
23:16 10.6 °F 7.2 °F 1026.0 in NNE 25.9 mph 25.9 mph 80 % 0.0 in 0.0 W/m2 CLR
23:20 10.6 °F 7.2 °F 1026.0 in North 22.2 mph 22.2 mph 80 % 0.0 in 0.0 W/m2 CLR
23:23 10.6 °F 7.2 °F 1026.0 in NNW 25.9 mph 25.9 mph 80 % 0.0 in 0.0 W/m2 CLR
23:26 10.6 °F 7.2 °F 1026.0 in North 22.2 mph 22.2 mph 80 % 0.0 in 0.0 W/m2 CLR
23:31 10.6 °F 7.2 °F 1026.0 in North 18.5 mph 18.5 mph 80 % 0.0 in 0.0 W/m2 CLR
23:33 10.6 °F 7.2 °F 1026.0 in NNW 24.1 mph 24.1 mph 80 % 0.0 in 0.0 W/m2 CLR
23:38 10.6 °F 7.4 °F 1026.3 in NNW 14.8 mph 14.8 mph 81 % 0.0 in 0.0 W/m2 CLR
23:43 10.0 °F 6.9 °F 1026.3 in North 14.8 mph 14.8 mph 81 % 0.0 in 0.0 W/m2 CLR
23:44 10.0 °F 6.9 °F 1026.3 in North 14.8 mph 14.8 mph 81 % 0.0 in 0.0 W/m2 CLR
23:49 10.0 °F 6.9 °F 1026.6 in NNE 11.1 mph 11.1 mph 81 % 0.0 in 0.0 W/m2 CLR
23:52 10.0 °F 6.9 °F 1026.6 in Calm     81 % 0.0 in 0.0 W/m2 CLR
23:54 10.0 °F 6.9 °F 1026.6 in Calm     81 % 0.0 in 0.0 W/m2 CLR
23:59 10.6 °F 7.4 °F 1026.6 in NNE 11.3 mph 11.3 mph 81 % 0.0 in 0.0 W/m2 CLR
Lo Temps de Massalio
Compliments of Weather Underground - 1.75 mb